sensor_id;sensor_type;location;lat;lon;timestamp;temperature;humidity
74224;SHT31;62585;49.706;18.216;2023-04-15T00:02:24;8.92;82.41
74224;SHT31;62585;49.706;18.216;2023-04-15T00:04:50;8.81;83.86
74224;SHT31;62585;49.706;18.216;2023-04-15T00:07:16;8.65;84.35
74224;SHT31;62585;49.706;18.216;2023-04-15T00:09:42;8.54;83.77
74224;SHT31;62585;49.706;18.216;2023-04-15T00:12:09;8.56;83.43
74224;SHT31;62585;49.706;18.216;2023-04-15T00:14:35;8.56;82.44
74224;SHT31;62585;49.706;18.216;2023-04-15T00:17:02;8.49;82.69
74224;SHT31;62585;49.706;18.216;2023-04-15T00:19:29;8.39;83.40
74224;SHT31;62585;49.706;18.216;2023-04-15T00:21:55;8.20;83.54
74224;SHT31;62585;49.706;18.216;2023-04-15T00:24:22;8.22;83.48
74224;SHT31;62585;49.706;18.216;2023-04-15T00:26:48;8.14;82.45
74224;SHT31;62585;49.706;18.216;2023-04-15T00:29:14;8.20;82.99
74224;SHT31;62585;49.706;18.216;2023-04-15T00:31:40;8.09;83.20
74224;SHT31;62585;49.706;18.216;2023-04-15T00:34:06;8.10;83.44
74224;SHT31;62585;49.706;18.216;2023-04-15T00:36:32;8.12;82.30
74224;SHT31;62585;49.706;18.216;2023-04-15T00:38:59;7.98;83.24
74224;SHT31;62585;49.706;18.216;2023-04-15T00:41:25;7.81;84.03
74224;SHT31;62585;49.706;18.216;2023-04-15T00:43:54;7.86;84.63
74224;SHT31;62585;49.706;18.216;2023-04-15T00:46:21;7.84;85.12
74224;SHT31;62585;49.706;18.216;2023-04-15T00:48:46;7.84;85.35
74224;SHT31;62585;49.706;18.216;2023-04-15T00:51:13;7.85;86.11
74224;SHT31;62585;49.706;18.216;2023-04-15T00:53:39;7.85;86.52
74224;SHT31;62585;49.706;18.216;2023-04-15T00:56:06;7.81;86.54
74224;SHT31;62585;49.706;18.216;2023-04-15T00:58:31;7.74;86.99
74224;SHT31;62585;49.706;18.216;2023-04-15T01:00:58;7.68;87.93
74224;SHT31;62585;49.706;18.216;2023-04-15T01:03:24;7.58;87.97
74224;SHT31;62585;49.706;18.216;2023-04-15T01:05:50;7.60;87.99
74224;SHT31;62585;49.706;18.216;2023-04-15T01:08:26;7.51;87.09
74224;SHT31;62585;49.706;18.216;2023-04-15T01:10:55;7.44;86.09
74224;SHT31;62585;49.706;18.216;2023-04-15T01:13:23;7.40;85.37
74224;SHT31;62585;49.706;18.216;2023-04-15T01:15:50;7.24;86.17
74224;SHT31;62585;49.706;18.216;2023-04-15T01:18:17;7.23;86.31
74224;SHT31;62585;49.706;18.216;2023-04-15T01:20:43;7.10;85.92
74224;SHT31;62585;49.706;18.216;2023-04-15T01:23:09;7.19;85.88
74224;SHT31;62585;49.706;18.216;2023-04-15T01:25:35;7.22;85.88
74224;SHT31;62585;49.706;18.216;2023-04-15T01:28:01;7.19;85.81
74224;SHT31;62585;49.706;18.216;2023-04-15T01:30:28;7.15;85.60
74224;SHT31;62585;49.706;18.216;2023-04-15T01:32:54;7.15;85.13
74224;SHT31;62585;49.706;18.216;2023-04-15T01:35:20;7.19;85.12
74224;SHT31;62585;49.706;18.216;2023-04-15T01:37:47;7.20;84.64
74224;SHT31;62585;49.706;18.216;2023-04-15T01:40:13;6.99;85.42
74224;SHT31;62585;49.706;18.216;2023-04-15T01:42:39;6.93;85.69
74224;SHT31;62585;49.706;18.216;2023-04-15T01:45:06;6.85;86.16
74224;SHT31;62585;49.706;18.216;2023-04-15T01:47:32;6.79;86.49
74224;SHT31;62585;49.706;18.216;2023-04-15T01:49:58;6.78;86.62
74224;SHT31;62585;49.706;18.216;2023-04-15T01:52:24;6.82;86.87
74224;SHT31;62585;49.706;18.216;2023-04-15T01:54:50;6.86;86.45
74224;SHT31;62585;49.706;18.216;2023-04-15T01:57:15;6.85;87.00
74224;SHT31;62585;49.706;18.216;2023-04-15T01:59:42;6.82;86.71
74224;SHT31;62585;49.706;18.216;2023-04-15T02:02:07;6.82;86.72
74224;SHT31;62585;49.706;18.216;2023-04-15T02:04:33;6.79;86.46
74224;SHT31;62585;49.706;18.216;2023-04-15T02:06:59;6.69;87.32
74224;SHT31;62585;49.706;18.216;2023-04-15T02:09:25;6.57;87.61
74224;SHT31;62585;49.706;18.216;2023-04-15T02:11:51;6.59;87.35
74224;SHT31;62585;49.706;18.216;2023-04-15T02:14:18;6.42;87.36
74224;SHT31;62585;49.706;18.216;2023-04-15T02:16:44;6.34;87.73
74224;SHT31;62585;49.706;18.216;2023-04-15T02:19:10;6.24;87.82
74224;SHT31;62585;49.706;18.216;2023-04-15T02:21:37;6.24;88.19
74224;SHT31;62585;49.706;18.216;2023-04-15T02:24:03;6.37;87.58
74224;SHT31;62585;49.706;18.216;2023-04-15T02:26:28;6.23;88.22
74224;SHT31;62585;49.706;18.216;2023-04-15T02:28:57;6.24;88.22
74224;SHT31;62585;49.706;18.216;2023-04-15T02:31:22;6.24;88.40
74224;SHT31;62585;49.706;18.216;2023-04-15T02:33:48;6.29;88.27
74224;SHT31;62585;49.706;18.216;2023-04-15T02:36:14;6.17;88.09
74224;SHT31;62585;49.706;18.216;2023-04-15T02:38:40;6.09;88.33
74224;SHT31;62585;49.706;18.216;2023-04-15T02:41:08;6.06;88.61
74224;SHT31;62585;49.706;18.216;2023-04-15T02:43:35;6.06;88.68
74224;SHT31;62585;49.706;18.216;2023-04-15T02:46:00;6.11;88.44
74224;SHT31;62585;49.706;18.216;2023-04-15T02:48:26;6.17;88.35
74224;SHT31;62585;49.706;18.216;2023-04-15T02:50:52;6.23;88.02
74224;SHT31;62585;49.706;18.216;2023-04-15T02:53:20;6.30;88.25
74224;SHT31;62585;49.706;18.216;2023-04-15T02:55:46;6.40;88.32
74224;SHT31;62585;49.706;18.216;2023-04-15T02:58:12;6.47;87.84
74224;SHT31;62585;49.706;18.216;2023-04-15T03:00:37;6.44;87.87
74224;SHT31;62585;49.706;18.216;2023-04-15T03:03:04;6.58;88.14
74224;SHT31;62585;49.706;18.216;2023-04-15T03:05:30;6.51;86.65
74224;SHT31;62585;49.706;18.216;2023-04-15T03:07:56;6.41;88.50
74224;SHT31;62585;49.706;18.216;2023-04-15T03:10:22;6.47;88.66
74224;SHT31;62585;49.706;18.216;2023-04-15T03:12:48;6.50;88.32
74224;SHT31;62585;49.706;18.216;2023-04-15T03:15:13;6.48;88.06
74224;SHT31;62585;49.706;18.216;2023-04-15T03:17:40;6.41;88.76
74224;SHT31;62585;49.706;18.216;2023-04-15T03:20:06;6.41;88.70
74224;SHT31;62585;49.706;18.216;2023-04-15T03:22:32;6.34;88.38
74224;SHT31;62585;49.706;18.216;2023-04-15T03:24:58;6.41;88.00
74224;SHT31;62585;49.706;18.216;2023-04-15T03:27:24;6.48;88.54
74224;SHT31;62585;49.706;18.216;2023-04-15T03:29:50;6.36;88.68
74224;SHT31;62585;49.706;18.216;2023-04-15T03:32:16;6.44;88.23
74224;SHT31;62585;49.706;18.216;2023-04-15T03:34:42;6.41;89.20
74224;SHT31;62585;49.706;18.216;2023-04-15T03:37:08;6.47;87.31
74224;SHT31;62585;49.706;18.216;2023-04-15T03:39:34;6.40;87.83
74224;SHT31;62585;49.706;18.216;2023-04-15T03:42:00;6.48;88.52
74224;SHT31;62585;49.706;18.216;2023-04-15T03:44:27;6.48;88.14
74224;SHT31;62585;49.706;18.216;2023-04-15T03:46:53;6.47;88.23
74224;SHT31;62585;49.706;18.216;2023-04-15T03:49:19;6.57;86.76
74224;SHT31;62585;49.706;18.216;2023-04-15T03:51:45;6.57;86.90
74224;SHT31;62585;49.706;18.216;2023-04-15T03:54:11;6.51;87.90
74224;SHT31;62585;49.706;18.216;2023-04-15T03:56:39;6.55;87.91
74224;SHT31;62585;49.706;18.216;2023-04-15T03:59:05;6.61;86.47
74224;SHT31;62585;49.706;18.216;2023-04-15T04:01:31;6.71;86.95
74224;SHT31;62585;49.706;18.216;2023-04-15T04:03:57;6.74;87.07
74224;SHT31;62585;49.706;18.216;2023-04-15T04:06:23;6.79;86.14
74224;SHT31;62585;49.706;18.216;2023-04-15T04:08:49;6.79;85.96
74224;SHT31;62585;49.706;18.216;2023-04-15T04:11:15;6.84;86.12
74224;SHT31;62585;49.706;18.216;2023-04-15T04:13:40;6.78;85.94
74224;SHT31;62585;49.706;18.216;2023-04-15T04:16:06;6.81;86.75
74224;SHT31;62585;49.706;18.216;2023-04-15T04:18:32;6.75;86.77
74224;SHT31;62585;49.706;18.216;2023-04-15T04:20:58;6.65;87.39
74224;SHT31;62585;49.706;18.216;2023-04-15T04:23:25;6.52;88.01
74224;SHT31;62585;49.706;18.216;2023-04-15T04:25:51;6.44;88.16
74224;SHT31;62585;49.706;18.216;2023-04-15T04:28:17;6.40;88.22
74224;SHT31;62585;49.706;18.216;2023-04-15T04:30:43;6.40;88.17
74224;SHT31;62585;49.706;18.216;2023-04-15T04:33:09;6.40;87.65
74224;SHT31;62585;49.706;18.216;2023-04-15T04:35:35;6.30;87.51
74224;SHT31;62585;49.706;18.216;2023-04-15T04:38:02;6.26;87.04
74224;SHT31;62585;49.706;18.216;2023-04-15T04:40:31;6.07;88.25
74224;SHT31;62585;49.706;18.216;2023-04-15T04:42:56;6.16;88.12
74224;SHT31;62585;49.706;18.216;2023-04-15T04:45:22;6.11;87.81
74224;SHT31;62585;49.706;18.216;2023-04-15T04:47:48;6.10;88.16
74224;SHT31;62585;49.706;18.216;2023-04-15T04:50:14;6.20;87.92
74224;SHT31;62585;49.706;18.216;2023-04-15T04:52:40;6.19;87.85
74224;SHT31;62585;49.706;18.216;2023-04-15T04:55:06;6.27;87.73
74224;SHT31;62585;49.706;18.216;2023-04-15T04:57:33;6.03;88.66
74224;SHT31;62585;49.706;18.216;2023-04-15T05:00:01;6.02;89.12
74224;SHT31;62585;49.706;18.216;2023-04-15T05:02:27;6.11;89.41
74224;SHT31;62585;49.706;18.216;2023-04-15T05:04:53;6.24;89.06
74224;SHT31;62585;49.706;18.216;2023-04-15T05:07:19;6.29;89.72
74224;SHT31;62585;49.706;18.216;2023-04-15T05:09:46;6.42;88.81
74224;SHT31;62585;49.706;18.216;2023-04-15T05:12:11;6.48;87.88
74224;SHT31;62585;49.706;18.216;2023-04-15T05:14:40;6.69;87.20
74224;SHT31;62585;49.706;18.216;2023-04-15T05:17:07;6.88;87.91
74224;SHT31;62585;49.706;18.216;2023-04-15T05:19:33;6.96;87.40
74224;SHT31;62585;49.706;18.216;2023-04-15T05:21:59;7.07;86.56
74224;SHT31;62585;49.706;18.216;2023-04-15T05:24:25;7.07;86.14
74224;SHT31;62585;49.706;18.216;2023-04-15T05:26:51;7.06;85.35
74224;SHT31;62585;49.706;18.216;2023-04-15T05:29:17;6.85;85.81
74224;SHT31;62585;49.706;18.216;2023-04-15T05:31:43;6.81;87.09
74224;SHT31;62585;49.706;18.216;2023-04-15T05:34:09;6.81;87.65
74224;SHT31;62585;49.706;18.216;2023-04-15T05:36:36;6.74;87.99
74224;SHT31;62585;49.706;18.216;2023-04-15T05:39:02;6.74;87.61
74224;SHT31;62585;49.706;18.216;2023-04-15T05:41:28;6.75;87.36
74224;SHT31;62585;49.706;18.216;2023-04-15T05:43:54;6.78;87.46
74224;SHT31;62585;49.706;18.216;2023-04-15T05:46:20;6.92;86.68
74224;SHT31;62585;49.706;18.216;2023-04-15T05:48:47;6.98;85.33
74224;SHT31;62585;49.706;18.216;2023-04-15T05:51:16;7.07;86.36
74224;SHT31;62585;49.706;18.216;2023-04-15T05:53:55;7.19;85.64
74224;SHT31;62585;49.706;18.216;2023-04-15T05:56:33;7.24;85.58
74224;SHT31;62585;49.706;18.216;2023-04-15T05:59:25;7.37;84.56
74224;SHT31;62585;49.706;18.216;2023-04-15T06:01:56;7.48;84.70
74224;SHT31;62585;49.706;18.216;2023-04-15T06:04:22;7.64;83.77
74224;SHT31;62585;49.706;18.216;2023-04-15T06:06:48;7.72;84.30
74224;SHT31;62585;49.706;18.216;2023-04-15T06:09:14;7.78;84.44
74224;SHT31;62585;49.706;18.216;2023-04-15T06:11:40;7.91;84.15
74224;SHT31;62585;49.706;18.216;2023-04-15T06:14:06;7.99;83.58
74224;SHT31;62585;49.706;18.216;2023-04-15T06:16:31;8.07;84.13
74224;SHT31;62585;49.706;18.216;2023-04-15T06:18:57;8.32;83.04
74224;SHT31;62585;49.706;18.216;2023-04-15T06:21:23;8.57;82.05
74224;SHT31;62585;49.706;18.216;2023-04-15T06:23:49;8.61;80.06
74224;SHT31;62585;49.706;18.216;2023-04-15T06:26:14;8.87;79.59
74224;SHT31;62585;49.706;18.216;2023-04-15T06:28:40;9.07;78.17
74224;SHT31;62585;49.706;18.216;2023-04-15T06:31:06;9.18;79.56
74224;SHT31;62585;49.706;18.216;2023-04-15T06:33:32;9.27;78.38
74224;SHT31;62585;49.706;18.216;2023-04-15T06:35:57;9.26;78.16
74224;SHT31;62585;49.706;18.216;2023-04-15T06:38:23;9.25;79.07
74224;SHT31;62585;49.706;18.216;2023-04-15T06:40:49;9.23;78.63
74224;SHT31;62585;49.706;18.216;2023-04-15T06:43:15;9.15;79.80
74224;SHT31;62585;49.706;18.216;2023-04-15T06:45:40;9.19;80.99
74224;SHT31;62585;49.706;18.216;2023-04-15T06:48:06;9.29;79.29
74224;SHT31;62585;49.706;18.216;2023-04-15T06:50:32;9.50;79.61
74224;SHT31;62585;49.706;18.216;2023-04-15T06:52:58;9.66;75.62
74224;SHT31;62585;49.706;18.216;2023-04-15T06:55:23;9.66;73.98
74224;SHT31;62585;49.706;18.216;2023-04-15T06:57:49;9.74;72.46
74224;SHT31;62585;49.706;18.216;2023-04-15T07:00:15;9.81;75.00
74224;SHT31;62585;49.706;18.216;2023-04-15T07:02:42;9.90;73.23
74224;SHT31;62585;49.706;18.216;2023-04-15T07:05:08;9.99;73.73
74224;SHT31;62585;49.706;18.216;2023-04-15T07:07:34;10.01;74.83
74224;SHT31;62585;49.706;18.216;2023-04-15T07:10:01;10.15;74.94
74224;SHT31;62585;49.706;18.216;2023-04-15T07:12:28;10.49;74.81
74224;SHT31;62585;49.706;18.216;2023-04-15T07:14:53;10.48;71.02
74224;SHT31;62585;49.706;18.216;2023-04-15T07:17:20;10.61;69.86
74224;SHT31;62585;49.706;18.216;2023-04-15T07:19:45;10.98;66.58
74224;SHT31;62585;49.706;18.216;2023-04-15T07:22:12;11.22;67.44
74224;SHT31;62585;49.706;18.216;2023-04-15T07:24:37;11.18;65.41
74224;SHT31;62585;49.706;18.216;2023-04-15T07:27:03;11.31;63.80
74224;SHT31;62585;49.706;18.216;2023-04-15T07:29:29;11.38;63.62
74224;SHT31;62585;49.706;18.216;2023-04-15T07:31:54;11.65;65.35
74224;SHT31;62585;49.706;18.216;2023-04-15T07:34:21;11.79;67.09
74224;SHT31;62585;49.706;18.216;2023-04-15T07:36:47;11.91;62.98
74224;SHT31;62585;49.706;18.216;2023-04-15T07:39:19;12.30;65.40
74224;SHT31;62585;49.706;18.216;2023-04-15T07:41:45;11.91;61.68
74224;SHT31;62585;49.706;18.216;2023-04-15T07:44:10;12.07;61.80
74224;SHT31;62585;49.706;18.216;2023-04-15T07:46:37;11.84;64.99
74224;SHT31;62585;49.706;18.216;2023-04-15T07:49:02;12.03;61.57
74224;SHT31;62585;49.706;18.216;2023-04-15T07:51:28;11.93;62.47
74224;SHT31;62585;49.706;18.216;2023-04-15T07:53:54;12.00;59.50
74224;SHT31;62585;49.706;18.216;2023-04-15T07:56:20;11.90;61.48
74224;SHT31;62585;49.706;18.216;2023-04-15T07:58:46;11.94;58.56
74224;SHT31;62585;49.706;18.216;2023-04-15T08:01:12;12.10;59.49
74224;SHT31;62585;49.706;18.216;2023-04-15T08:03:38;11.82;59.58
74224;SHT31;62585;49.706;18.216;2023-04-15T08:06:04;11.63;61.19
74224;SHT31;62585;49.706;18.216;2023-04-15T08:08:29;11.69;61.58
74224;SHT31;62585;49.706;18.216;2023-04-15T08:10:57;11.77;59.85
74224;SHT31;62585;49.706;18.216;2023-04-15T08:13:22;11.79;57.85
74224;SHT31;62585;49.706;18.216;2023-04-15T08:16:12;11.77;59.25
74224;SHT31;62585;49.706;18.216;2023-04-15T08:18:37;11.76;59.25
74224;SHT31;62585;49.706;18.216;2023-04-15T08:21:03;11.84;56.95
74224;SHT31;62585;49.706;18.216;2023-04-15T08:23:30;11.65;58.07
74224;SHT31;62585;49.706;18.216;2023-04-15T08:25:57;11.55;59.04
74224;SHT31;62585;49.706;18.216;2023-04-15T08:28:22;11.66;57.34
74224;SHT31;62585;49.706;18.216;2023-04-15T08:30:48;11.65;58.12
74224;SHT31;62585;49.706;18.216;2023-04-15T08:33:14;11.72;58.03
74224;SHT31;62585;49.706;18.216;2023-04-15T08:35:40;11.83;58.05
74224;SHT31;62585;49.706;18.216;2023-04-15T08:38:05;11.80;58.50
74224;SHT31;62585;49.706;18.216;2023-04-15T08:40:40;11.86;58.72
74224;SHT31;62585;49.706;18.216;2023-04-15T08:43:09;11.73;61.41
74224;SHT31;62585;49.706;18.216;2023-04-15T08:45:38;11.90;62.02
74224;SHT31;62585;49.706;18.216;2023-04-15T08:48:04;12.03;61.46
74224;SHT31;62585;49.706;18.216;2023-04-15T08:50:31;12.21;60.10
74224;SHT31;62585;49.706;18.216;2023-04-15T08:52:58;12.48;61.15
74224;SHT31;62585;49.706;18.216;2023-04-15T08:55:29;12.63;59.64
74224;SHT31;62585;49.706;18.216;2023-04-15T08:57:58;12.37;58.09
74224;SHT31;62585;49.706;18.216;2023-04-15T09:00:24;12.31;58.95
74224;SHT31;62585;49.706;18.216;2023-04-15T09:02:51;12.44;59.63
74224;SHT31;62585;49.706;18.216;2023-04-15T09:05:17;12.35;61.14
74224;SHT31;62585;49.706;18.216;2023-04-15T09:07:43;12.23;56.54
74224;SHT31;62585;49.706;18.216;2023-04-15T09:10:09;12.34;57.10
74224;SHT31;62585;49.706;18.216;2023-04-15T09:12:35;12.31;59.30
74224;SHT31;62585;49.706;18.216;2023-04-15T09:15:02;12.31;58.16
74224;SHT31;62585;49.706;18.216;2023-04-15T09:17:28;12.37;58.21
74224;SHT31;62585;49.706;18.216;2023-04-15T09:20:13;12.25;58.59
74224;SHT31;62585;49.706;18.216;2023-04-15T09:22:44;12.37;58.14
74224;SHT31;62585;49.706;18.216;2023-04-15T09:27:49;12.52;63.99
74224;SHT31;62585;49.706;18.216;2023-04-15T09:30:16;12.68;63.34
74224;SHT31;62585;49.706;18.216;2023-04-15T09:32:56;12.75;61.62
74224;SHT31;62585;49.706;18.216;2023-04-15T09:35:24;12.89;60.65
74224;SHT31;62585;49.706;18.216;2023-04-15T09:37:50;12.90;58.88
74224;SHT31;62585;49.706;18.216;2023-04-15T09:40:36;12.83;57.32
74224;SHT31;62585;49.706;18.216;2023-04-15T09:43:03;12.93;56.23
74224;SHT31;62585;49.706;18.216;2023-04-15T09:45:31;12.72;55.67
74224;SHT31;62585;49.706;18.216;2023-04-15T09:47:57;12.90;58.24
74224;SHT31;62585;49.706;18.216;2023-04-15T09:50:26;12.99;60.65
74224;SHT31;62585;49.706;18.216;2023-04-15T09:52:51;13.09;58.70
74224;SHT31;62585;49.706;18.216;2023-04-15T09:55:17;13.09;57.01
74224;SHT31;62585;49.706;18.216;2023-04-15T09:57:45;12.97;56.53
74224;SHT31;62585;49.706;18.216;2023-04-15T10:00:12;13.00;55.98
74224;SHT31;62585;49.706;18.216;2023-04-15T10:02:41;12.95;55.70
74224;SHT31;62585;49.706;18.216;2023-04-15T10:05:13;13.11;57.61
74224;SHT31;62585;49.706;18.216;2023-04-15T10:07:40;13.33;58.93
74224;SHT31;62585;49.706;18.216;2023-04-15T10:10:07;13.33;55.75
74224;SHT31;62585;49.706;18.216;2023-04-15T10:12:36;13.23;57.36
74224;SHT31;62585;49.706;18.216;2023-04-15T10:15:04;13.33;57.26
74224;SHT31;62585;49.706;18.216;2023-04-15T10:17:31;13.36;59.07
74224;SHT31;62585;49.706;18.216;2023-04-15T10:20:03;13.28;58.75
74224;SHT31;62585;49.706;18.216;2023-04-15T10:22:29;13.23;59.01
74224;SHT31;62585;49.706;18.216;2023-04-15T10:24:56;13.30;57.73
74224;SHT31;62585;49.706;18.216;2023-04-15T10:27:22;13.10;56.71
74224;SHT31;62585;49.706;18.216;2023-04-15T10:29:52;13.07;56.17
74224;SHT31;62585;49.706;18.216;2023-04-15T10:32:19;12.75;58.05
74224;SHT31;62585;49.706;18.216;2023-04-15T10:34:47;12.65;58.29
74224;SHT31;62585;49.706;18.216;2023-04-15T10:37:19;12.37;57.85
74224;SHT31;62585;49.706;18.216;2023-04-15T10:39:46;12.44;58.13
74224;SHT31;62585;49.706;18.216;2023-04-15T10:42:17;12.41;57.09
74224;SHT31;62585;49.706;18.216;2023-04-15T10:44:51;12.69;58.54
74224;SHT31;62585;49.706;18.216;2023-04-15T10:47:21;12.83;58.95
74224;SHT31;62585;49.706;18.216;2023-04-15T10:49:51;13.03;58.65
74224;SHT31;62585;49.706;18.216;2023-04-15T10:52:25;13.04;57.20
74224;SHT31;62585;49.706;18.216;2023-04-15T10:55:21;13.38;59.13
74224;SHT31;62585;49.706;18.216;2023-04-15T10:57:51;13.66;56.44
74224;SHT31;62585;49.706;18.216;2023-04-15T11:00:19;13.82;55.89
74224;SHT31;62585;49.706;18.216;2023-04-15T11:03:04;13.96;56.12
74224;SHT31;62585;49.706;18.216;2023-04-15T11:08:07;13.76;57.73
74224;SHT31;62585;49.706;18.216;2023-04-15T11:13:23;13.65;53.24
74224;SHT31;62585;49.706;18.216;2023-04-15T11:15:54;13.66;52.69
74224;SHT31;62585;49.706;18.216;2023-04-15T11:18:25;13.41;51.45
74224;SHT31;62585;49.706;18.216;2023-04-15T11:20:59;13.18;51.98
74224;SHT31;62585;49.706;18.216;2023-04-15T11:25:57;13.16;51.52
74224;SHT31;62585;49.706;18.216;2023-04-15T11:28:29;13.13;53.74
74224;SHT31;62585;49.706;18.216;2023-04-15T11:30:56;13.04;53.74
74224;SHT31;62585;49.706;18.216;2023-04-15T11:33:23;12.96;53.55
74224;SHT31;62585;49.706;18.216;2023-04-15T11:35:50;13.07;54.29
74224;SHT31;62585;49.706;18.216;2023-04-15T11:38:17;13.06;52.73
74224;SHT31;62585;49.706;18.216;2023-04-15T11:40:43;13.44;52.44
74224;SHT31;62585;49.706;18.216;2023-04-15T11:43:18;14.10;54.79
74224;SHT31;62585;49.706;18.216;2023-04-15T11:45:57;14.03;51.08
74224;SHT31;62585;49.706;18.216;2023-04-15T11:48:28;14.06;51.42
74224;SHT31;62585;49.706;18.216;2023-04-15T11:50:57;14.16;50.13
74224;SHT31;62585;49.706;18.216;2023-04-15T11:53:23;14.12;49.97
74224;SHT31;62585;49.706;18.216;2023-04-15T11:55:51;14.44;52.04
74224;SHT31;62585;49.706;18.216;2023-04-15T11:58:22;14.64;51.17
74224;SHT31;62585;49.706;18.216;2023-04-15T12:00:59;14.47;52.62
74224;SHT31;62585;49.706;18.216;2023-04-15T12:06:05;14.24;51.37
74224;SHT31;62585;49.706;18.216;2023-04-15T12:14:02;14.13;51.59
74224;SHT31;62585;49.706;18.216;2023-04-15T12:16:28;14.14;51.19
74224;SHT31;62585;49.706;18.216;2023-04-15T12:18:56;13.83;53.27
74224;SHT31;62585;49.706;18.216;2023-04-15T12:21:22;13.26;56.38
74224;SHT31;62585;49.706;18.216;2023-04-15T12:23:49;13.07;58.74
74224;SHT31;62585;49.706;18.216;2023-04-15T12:26:16;13.07;58.91
74224;SHT31;62585;49.706;18.216;2023-04-15T12:28:42;13.03;59.77
74224;SHT31;62585;49.706;18.216;2023-04-15T12:31:09;13.14;62.97
74224;SHT31;62585;49.706;18.216;2023-04-15T12:33:35;13.27;62.40
74224;SHT31;62585;49.706;18.216;2023-04-15T12:36:02;13.33;58.70
74224;SHT31;62585;49.706;18.216;2023-04-15T12:38:29;13.53;59.97
74224;SHT31;62585;49.706;18.216;2023-04-15T12:40:54;13.36;60.09
74224;SHT31;62585;49.706;18.216;2023-04-15T12:43:20;13.44;62.25
74224;SHT31;62585;49.706;18.216;2023-04-15T12:45:46;13.50;59.20
74224;SHT31;62585;49.706;18.216;2023-04-15T12:48:12;13.59;59.29
74224;SHT31;62585;49.706;18.216;2023-04-15T12:50:37;13.85;59.49
74224;SHT31;62585;49.706;18.216;2023-04-15T12:53:03;14.01;58.39
74224;SHT31;62585;49.706;18.216;2023-04-15T12:55:29;14.32;57.79
74224;SHT31;62585;49.706;18.216;2023-04-15T12:57:55;14.54;56.73
74224;SHT31;62585;49.706;18.216;2023-04-15T13:00:22;15.20;56.52
74224;SHT31;62585;49.706;18.216;2023-04-15T13:02:48;15.64;52.14
74224;SHT31;62585;49.706;18.216;2023-04-15T13:05:14;16.21;53.08
74224;SHT31;62585;49.706;18.216;2023-04-15T13:07:41;16.71;51.55
74224;SHT31;62585;49.706;18.216;2023-04-15T13:10:07;16.67;54.57
74224;SHT31;62585;49.706;18.216;2023-04-15T13:12:32;16.67;52.23
74224;SHT31;62585;49.706;18.216;2023-04-15T13:15:04;16.59;48.72
74224;SHT31;62585;49.706;18.216;2023-04-15T13:17:30;16.36;51.31
74224;SHT31;62585;49.706;18.216;2023-04-15T13:19:56;16.16;49.97
74224;SHT31;62585;49.706;18.216;2023-04-15T13:22:22;15.75;49.25
74224;SHT31;62585;49.706;18.216;2023-04-15T13:24:48;15.57;53.57
74224;SHT31;62585;49.706;18.216;2023-04-15T13:27:14;15.44;55.77
74224;SHT31;62585;49.706;18.216;2023-04-15T13:29:40;15.30;55.88
74224;SHT31;62585;49.706;18.216;2023-04-15T13:32:05;15.32;53.52
74224;SHT31;62585;49.706;18.216;2023-04-15T13:34:31;15.23;54.33
74224;SHT31;62585;49.706;18.216;2023-04-15T13:36:57;15.25;54.63
74224;SHT31;62585;49.706;18.216;2023-04-15T13:39:23;15.18;55.55
74224;SHT31;62585;49.706;18.216;2023-04-15T13:41:49;15.16;55.44
74224;SHT31;62585;49.706;18.216;2023-04-15T13:44:14;15.18;55.44
74224;SHT31;62585;49.706;18.216;2023-04-15T13:46:40;14.92;53.16
74224;SHT31;62585;49.706;18.216;2023-04-15T13:49:07;14.93;52.30
74224;SHT31;62585;49.706;18.216;2023-04-15T13:51:33;14.96;52.21
74224;SHT31;62585;49.706;18.216;2023-04-15T13:54:04;14.87;53.78
74224;SHT31;62585;49.706;18.216;2023-04-15T13:56:29;14.88;51.38
74224;SHT31;62585;49.706;18.216;2023-04-15T13:58:55;14.74;52.47
74224;SHT31;62585;49.706;18.216;2023-04-15T14:01:24;14.61;50.82
74224;SHT31;62585;49.706;18.216;2023-04-15T14:03:50;14.65;53.09
74224;SHT31;62585;49.706;18.216;2023-04-15T14:06:15;14.59;51.82
74224;SHT31;62585;49.706;18.216;2023-04-15T14:08:41;14.77;50.15
74224;SHT31;62585;49.706;18.216;2023-04-15T14:13:35;15.87;48.11
74224;SHT31;62585;49.706;18.216;2023-04-15T14:16:01;16.60;48.34
74224;SHT31;62585;49.706;18.216;2023-04-15T14:18:27;16.71;49.44
74224;SHT31;62585;49.706;18.216;2023-04-15T14:20:54;16.76;47.46
74224;SHT31;62585;49.706;18.216;2023-04-15T14:23:20;16.66;47.88
74224;SHT31;62585;49.706;18.216;2023-04-15T14:25:46;16.12;46.94
74224;SHT31;62585;49.706;18.216;2023-04-15T14:28:11;15.08;51.61
74224;SHT31;62585;49.706;18.216;2023-04-15T14:30:37;14.13;58.12
74224;SHT31;62585;49.706;18.216;2023-04-15T14:33:03;13.36;56.97
74224;SHT31;62585;49.706;18.216;2023-04-15T14:35:29;12.73;65.05
74224;SHT31;62585;49.706;18.216;2023-04-15T14:37:55;12.45;67.59
74224;SHT31;62585;49.706;18.216;2023-04-15T14:40:22;12.44;67.99
74224;SHT31;62585;49.706;18.216;2023-04-15T14:42:47;12.23;67.29
74224;SHT31;62585;49.706;18.216;2023-04-15T14:45:13;12.18;61.29
74224;SHT31;62585;49.706;18.216;2023-04-15T14:47:39;12.25;64.17
74224;SHT31;62585;49.706;18.216;2023-04-15T14:50:05;12.23;72.99
74224;SHT31;62585;49.706;18.216;2023-04-15T14:52:31;12.38;76.04
74224;SHT31;62585;49.706;18.216;2023-04-15T14:55:08;12.34;76.70
74224;SHT31;62585;49.706;18.216;2023-04-15T14:57:37;12.42;74.76
74224;SHT31;62585;49.706;18.216;2023-04-15T15:00:04;12.61;72.95
74224;SHT31;62585;49.706;18.216;2023-04-15T15:02:32;12.80;73.50
74224;SHT31;62585;49.706;18.216;2023-04-15T15:04:59;13.02;68.72
74224;SHT31;62585;49.706;18.216;2023-04-15T15:07:25;12.83;69.67
74224;SHT31;62585;49.706;18.216;2023-04-15T15:09:52;12.99;67.66
74224;SHT31;62585;49.706;18.216;2023-04-15T15:12:18;13.09;66.19
74224;SHT31;62585;49.706;18.216;2023-04-15T15:14:44;13.10;65.61
74224;SHT31;62585;49.706;18.216;2023-04-15T15:17:10;13.30;65.58
74224;SHT31;62585;49.706;18.216;2023-04-15T15:19:36;13.69;63.41
74224;SHT31;62585;49.706;18.216;2023-04-15T15:22:02;14.01;63.20
74224;SHT31;62585;49.706;18.216;2023-04-15T15:24:28;14.19;62.79
74224;SHT31;62585;49.706;18.216;2023-04-15T15:26:54;14.17;62.28
74224;SHT31;62585;49.706;18.216;2023-04-15T15:29:20;14.20;62.77
74224;SHT31;62585;49.706;18.216;2023-04-15T15:31:45;14.26;63.46
74224;SHT31;62585;49.706;18.216;2023-04-15T15:34:11;14.36;62.22
74224;SHT31;62585;49.706;18.216;2023-04-15T15:36:37;14.41;58.77
74224;SHT31;62585;49.706;18.216;2023-04-15T15:39:03;14.74;60.73
74224;SHT31;62585;49.706;18.216;2023-04-15T15:41:28;14.75;60.78
74224;SHT31;62585;49.706;18.216;2023-04-15T15:43:54;14.60;58.59